Aragon, NM

9:47 PM MDT on October 20, 2014 (GMT -0600)
Largo Mesa | Change Station
CLOSE
Current Station
Personal Weather Station
Location: Quemado, NM
Elevation: 7812 ft
Nearby Weather Stations

Elev 7812 ft 34.26 °N, 108.58 °W | Updated 6 minutes ago

Partly Cloudy
Partly Cloudy
45.5 °F
Feels Like 46 °F
N
0.0
Wind Variable Wind from North
Gusts 1.0 mph

Today
High -- | Low -- °F
--% Chance of Precip.
Yesterday
High -- | Low -- °F
Precip. -- in
7:23 AM 6:34 PM
Waning Crescent, 7% visible
Pressure 29.99 in
Visibility 10.0 miles
Clouds Clear
Windchill 46 °F
Dew Point 39 °F
Humidity 79%
Rainfall 0.05 in
Snow Depth Not available.
UV 0 out of 12
Pollen 4.60 out of 12
Air Quality Not available.
Flu Activity Sporadic
METAR KSJN 210254Z AUTO 17006KT 10SM CLR 12/08 A3012 RMK AO2 SLP154 T01220083 51008

More Conditions Fewer Conditions

Pressure 29.99 in
Visibility 10.0 miles
Clouds Clear
Windchill 46 °F
Dew Point 39 °F
Humidity 79%
Rainfall 0.05 in
Snow Depth Not available.
UV 0 out of 12
Pollen 4.60 out of 12
Air Quality Not available.
Flu Activity Sporadic
METAR KSJN 210254Z AUTO 17006KT 10SM CLR 12/08 A3012 RMK AO2 SLP154 T01220083 51008

More Conditions Fewer Conditions

Nowcast | as of 8:09 PM MDT on October 20, 2014

Isolated showers and thunderstorms will continue across portions of west central and southwest New Mexico through the evening. Movement will be to the northwest at 10 to 15 mph. Most areas will see a tenth of an inch of rain or less through 10 PM...although the area from south of Beaverhead to near dusty could receive higher amounts up to one half inch. Some other locations which may be affected include Old Horse Springs...Quemado...and the very large array.

×

10-Day Weather Forecast

Almanac

Astronomy

Oct. 20, 2014 Rise Set
Actual Time 7:23 AM MDT 6:34 PM MDT
Civil Twilight 6:58 AM MDT 6:59 PM MDT
Nautical Twilight 6:29 AM MDT 7:29 PM MDT
Astronomical Twilight 6:00 AM MDT 7:57 PM MDT
Moon 4:23 AM MDT (10/20) 4:51 PM MDT (10/20)
Length of Visible Light 12h 01m
Length of Day
11h 10m
Tomorrow will be 1m 59s shorter.
Waning Crescent, 7% of the Moon is Illuminated
Today
Waning Crescent
Oct 23
New
Oct 30
First Quarter
Nov 6
Full
Nov 14
Last Quarter

Today's Extremes

State Highs State Lows

Community

WunderPhotos

Upload Photos

1,763,594 photos uploaded!

Nearby

Snow Depth

Station Depth Elevation
Frisco Divide 1 in 8000 ft
Silver Creek Divide 1 in 9000 ft
Signal Peak 0 in 8360 ft
Rice Park 0 in 8460 ft
Senorita Divide #2 0 in 8600 ft

Earthquake Activity

City Distance Mag. Time & Date
No recent earthquake activity has been reported nearby.
Minimum magnitude displayed is 2.5.

Coastal Water Temperatures

Place Temperature
No Stations Reporting

Nearby Weather Stations